Time,TemperatureF,DewpointF,PressureIn,WindDirection,WindDirectionDegrees,WindSpeedMPH,WindSpeedGustMPH,Humidity,HourlyPrecipIn,Conditions,Clouds,dailyrainin,SoftwareType,DateUTC
2013-04-06 00:00:00,66.4,62.3,29.37,WNW,292,0.0,0.0,87,0.00,,,0.00,WUHU21623XXSP,2013-04-06 04:00:00,
2013-04-06 00:01:00,66.4,62.3,29.37,WNW,292,0.0,0.0,87,0.00,,,0.00,WUHU21623XXSP,2013-04-06 04:01:00,
2013-04-06 00:07:00,66.2,62.2,29.37,NW,315,0.0,0.0,87,0.00,,,0.00,WUHU21623XXSP,2013-04-06 04:07:00,
2013-04-06 00:12:00,66.0,61.3,29.37,WNW,292,0.0,0.0,85,0.00,,,0.00,WUHU21623XXSP,2013-04-06 04:12:00,
2013-04-06 00:17:00,65.8,60.5,29.37,WSW,247,0.0,0.0,83,0.00,,,0.00,WUHU21623XXSP,2013-04-06 04:17:00,
2013-04-06 00:22:00,65.8,60.2,29.37,West,270,0.0,0.0,82,0.00,,,0.00,WUHU21623XXSP,2013-04-06 04:22:00,
2013-04-06 00:27:00,65.7,59.7,29.38,WNW,292,0.0,0.0,81,0.00,,,0.00,WUHU21623XXSP,2013-04-06 04:27:00,
2013-04-06 00:32:00,65.5,58.8,29.38,WNW,292,0.0,0.0,79,0.00,,,0.00,WUHU21623XXSP,2013-04-06 04:32:00,
2013-04-06 00:37:00,65.3,58.6,29.37,West,270,0.0,0.0,79,0.00,,,0.00,WUHU21623XXSP,2013-04-06 04:37:00,
2013-04-06 00:42:00,65.1,58.1,29.37,NNW,337,0.0,0.0,78,0.00,,,0.00,WUHU21623XXSP,2013-04-06 04:42:00,
2013-04-06 00:47:00,64.9,58.3,29.38,NW,315,0.0,0.0,79,0.00,,,0.00,WUHU21623XXSP,2013-04-06 04:47:00,
2013-04-06 00:52:00,64.9,58.3,29.37,WNW,292,0.0,0.0,79,0.00,,,0.00,WUHU21623XXSP,2013-04-06 04:52:00,
2013-04-06 00:57:00,64.8,58.1,29.38,NW,315,0.0,0.0,79,0.00,,,0.00,WUHU21623XXSP,2013-04-06 04:57:00,
2013-04-06 01:02:00,64.6,57.9,29.38,NNW,337,0.0,0.0,79,0.00,,,0.00,WUHU21623XXSP,2013-04-06 05:02:00,
2013-04-06 01:07:00,64.2,57.6,29.38,NW,315,0.0,0.0,79,0.00,,,0.00,WUHU21623XXSP,2013-04-06 05:07:00,
2013-04-06 01:12:00,64.0,57.0,29.38,NNW,337,0.0,0.0,78,0.00,,,0.00,WUHU21623XXSP,2013-04-06 05:12:00,
2013-04-06 01:17:00,64.0,57.4,29.38,NNW,337,0.0,0.0,79,0.00,,,0.00,WUHU21623XXSP,2013-04-06 05:17:00,
2013-04-06 01:22:00,63.7,57.0,29.38,NNW,337,0.0,0.0,79,0.00,,,0.00,WUHU21623XXSP,2013-04-06 05:22:00,
2013-04-06 01:27:00,63.7,57.0,29.38,NW,315,0.0,0.0,79,0.00,,,0.00,WUHU21623XXSP,2013-04-06 05:27:00,
2013-04-06 01:32:00,63.5,56.8,29.38,NW,315,0.0,0.0,79,0.00,,,0.00,WUHU21623XXSP,2013-04-06 05:32:00,
2013-04-06 01:37:00,63.3,56.7,29.38,NW,315,0.0,0.0,79,0.00,,,0.00,WUHU21623XXSP,2013-04-06 05:37:00,
2013-04-06 01:42:00,63.1,56.8,29.38,West,270,0.0,0.0,80,0.00,,,0.00,WUHU21623XXSP,2013-04-06 05:42:00,
2013-04-06 01:47:00,63.1,56.8,29.37,WNW,292,0.0,0.0,80,0.00,,,0.00,WUHU21623XXSP,2013-04-06 05:47:00,
2013-04-06 01:52:00,63.0,56.7,29.37,WNW,292,0.0,0.0,80,0.00,,,0.00,WUHU21623XXSP,2013-04-06 05:52:00,
2013-04-06 01:57:00,62.8,56.5,29.37,WNW,292,0.0,0.0,80,0.00,,,0.00,WUHU21623XXSP,2013-04-06 05:57:00,
2013-04-06 02:02:00,62.6,56.3,29.37,WNW,292,0.0,0.0,80,0.00,,,0.00,WUHU21623XXSP,2013-04-06 06:02:00,
2013-04-06 02:07:00,62.6,56.3,29.38,West,270,0.0,0.0,80,0.00,,,0.00,WUHU21623XXSP,2013-04-06 06:07:00,
2013-04-06 02:12:00,62.4,56.5,29.38,West,270,0.0,0.0,81,0.00,,,0.00,WUHU21623XXSP,2013-04-06 06:12:00,
2013-04-06 02:17:00,62.2,56.3,29.38,NNW,337,0.0,0.0,81,0.00,,,0.00,WUHU21623XXSP,2013-04-06 06:17:00,
2013-04-06 02:22:00,62.2,56.6,29.38,West,270,0.0,0.0,82,0.00,,,0.00,WUHU21623XXSP,2013-04-06 06:22:00,
2013-04-06 02:27:00,62.2,56.6,29.38,WNW,292,0.0,0.0,82,0.00,,,0.00,WUHU21623XXSP,2013-04-06 06:27:00,
2013-04-06 02:32:00,62.2,56.6,29.37,NW,315,0.0,0.0,82,0.00,,,0.00,WUHU21623XXSP,2013-04-06 06:32:00,
2013-04-06 02:37:00,62.2,56.6,29.38,NNW,337,0.0,0.0,82,0.00,,,0.00,WUHU21623XXSP,2013-04-06 06:37:00,
2013-04-06 02:42:00,62.4,56.8,29.38,WNW,292,0.0,0.0,82,0.00,,,0.00,WUHU21623XXSP,2013-04-06 06:42:00,
2013-04-06 02:47:00,62.4,56.8,29.38,WNW,292,0.0,0.0,82,0.00,,,0.00,WUHU21623XXSP,2013-04-06 06:47:00,
2013-04-06 02:52:00,62.4,56.8,29.38,WNW,292,0.0,0.0,82,0.00,,,0.00,WUHU21623XXSP,2013-04-06 06:52:00,
2013-04-06 02:57:00,62.4,57.1,29.37,WNW,292,0.0,0.0,83,0.00,,,0.00,WUHU21623XXSP,2013-04-06 06:57:00,
2013-04-06 03:03:00,62.4,57.1,29.37,WNW,292,0.0,0.0,83,0.00,,,0.00,WUHU21623XXSP,2013-04-06 07:03:00,
2013-04-06 03:08:00,62.4,57.1,29.37,WNW,292,0.0,0.0,83,0.00,,,0.00,WUHU21623XXSP,2013-04-06 07:08:00,
2013-04-06 03:13:00,62.4,57.5,29.37,WNW,292,0.0,0.0,84,0.00,,,0.00,WUHU21623XXSP,2013-04-06 07:13:00,
2013-04-06 03:18:00,62.4,57.5,29.37,WNW,292,0.0,0.0,84,0.00,,,0.00,WUHU21623XXSP,2013-04-06 07:18:00,
2013-04-06 03:23:00,62.4,57.5,29.37,NW,315,0.0,0.0,84,0.00,,,0.00,WUHU21623XXSP,2013-04-06 07:23:00,
2013-04-06 03:28:00,62.4,57.8,29.37,NW,315,0.0,0.0,85,0.00,,,0.00,WUHU21623XXSP,2013-04-06 07:28:00,
2013-04-06 03:33:00,62.4,57.8,29.37,NNW,337,0.0,0.0,85,0.00,,,0.00,WUHU21623XXSP,2013-04-06 07:33:00,
2013-04-06 03:38:00,62.4,57.8,29.37,NNW,337,0.0,0.0,85,0.00,,,0.00,WUHU21623XXSP,2013-04-06 07:38:00,
2013-04-06 03:43:00,62.6,58.0,29.38,North,0,0.0,0.0,85,0.00,,,0.00,WUHU21623XXSP,2013-04-06 07:43:00,
2013-04-06 03:48:00,62.8,58.5,29.37,North,0,0.0,0.0,86,0.00,,,0.00,WUHU21623XXSP,2013-04-06 07:48:00,
2013-04-06 03:53:00,62.8,58.5,29.38,NNW,337,0.0,0.0,86,0.00,,,0.00,WUHU21623XXSP,2013-04-06 07:53:00,
2013-04-06 03:58:00,62.8,58.5,29.38,North,0,0.0,0.0,86,0.00,,,0.00,WUHU21623XXSP,2013-04-06 07:58:00,
2013-04-06 04:03:00,62.8,58.5,29.37,WNW,292,0.0,0.0,86,0.00,,,0.00,WUHU21623XXSP,2013-04-06 08:03:00,
2013-04-06 04:08:00,62.8,58.5,29.37,NNE,22,0.0,0.0,86,0.00,,,0.00,WUHU21623XXSP,2013-04-06 08:08:00,
2013-04-06 04:13:00,62.8,58.5,29.37,NNW,337,0.0,0.0,86,0.00,,,0.00,WUHU21623XXSP,2013-04-06 08:13:00,
2013-04-06 04:18:00,62.6,58.4,29.37,NNE,22,0.0,0.0,86,0.00,,,0.00,WUHU21623XXSP,2013-04-06 08:18:00,
2013-04-06 04:23:00,62.6,58.0,29.38,North,0,0.0,0.0,85,0.00,,,0.00,WUHU21623XXSP,2013-04-06 08:23:00,
2013-04-06 04:28:00,62.4,57.8,29.38,NNE,22,0.0,0.0,85,0.00,,,0.00,WUHU21623XXSP,2013-04-06 08:28:00,
2013-04-06 04:33:00,62.4,57.8,29.38,NNW,337,0.0,0.0,85,0.00,,,0.00,WUHU21623XXSP,2013-04-06 08:33:00,
2013-04-06 04:38:00,62.4,57.8,29.37,NNW,337,0.0,0.0,85,0.00,,,0.00,WUHU21623XXSP,2013-04-06 08:38:00,
2013-04-06 04:43:00,62.4,57.8,29.37,NNE,22,0.0,0.0,85,0.00,,,0.00,WUHU21623XXSP,2013-04-06 08:43:00,
2013-04-06 04:48:00,62.2,57.7,29.37,North,0,0.0,0.0,85,0.00,,,0.00,WUHU21623XXSP,2013-04-06 08:48:00,
2013-04-06 04:53:00,62.2,57.7,29.37,North,0,0.0,0.0,85,0.00,,,0.00,WUHU21623XXSP,2013-04-06 08:53:00,
2013-04-06 04:58:00,62.2,57.7,29.37,North,0,0.0,0.0,85,0.00,,,0.00,WUHU21623XXSP,2013-04-06 08:58:00,
2013-04-06 05:03:00,62.1,57.5,29.37,NNW,337,0.0,0.0,85,0.00,,,0.00,WUHU21623XXSP,2013-04-06 09:03:00,
2013-04-06 05:08:00,62.1,57.5,29.37,NNW,337,0.0,0.0,85,0.00,,,0.00,WUHU21623XXSP,2013-04-06 09:08:00,
2013-04-06 05:13:00,61.7,57.1,29.38,NNW,337,0.0,0.0,85,0.00,,,0.00,WUHU21623XXSP,2013-04-06 09:13:00,
2013-04-06 05:18:00,61.7,57.1,29.38,North,0,0.0,0.0,85,0.00,,,0.00,WUHU21623XXSP,2013-04-06 09:18:00,
2013-04-06 05:23:00,61.7,57.1,29.38,NNE,22,0.0,0.0,85,0.00,,,0.00,WUHU21623XXSP,2013-04-06 09:23:00,
2013-04-06 05:28:00,61.5,57.0,29.39,NNW,337,0.0,0.0,85,0.00,,,0.00,WUHU21623XXSP,2013-04-06 09:28:00,
2013-04-06 05:33:00,61.5,57.0,29.39,NW,315,0.0,0.0,85,0.00,,,0.00,WUHU21623XXSP,2013-04-06 09:33:00,
2013-04-06 05:38:00,61.3,56.8,29.39,NNW,337,0.0,0.0,85,0.00,,,0.00,WUHU21623XXSP,2013-04-06 09:38:00,
2013-04-06 05:43:00,61.3,56.8,29.39,NNW,337,0.0,0.0,85,0.00,,,0.00,WUHU21623XXSP,2013-04-06 09:43:00,
2013-04-06 05:48:00,61.2,56.6,29.39,NNW,337,0.0,0.0,85,0.00,,,0.00,WUHU21623XXSP,2013-04-06 09:48:00,
2013-04-06 05:53:00,61.0,56.5,29.39,NW,315,0.0,0.0,85,0.00,,,0.00,WUHU21623XXSP,2013-04-06 09:53:00,
2013-04-06 05:58:00,61.0,56.5,29.39,NNW,337,0.0,0.0,85,0.00,,,0.00,WUHU21623XXSP,2013-04-06 09:58:00,
2013-04-06 06:03:00,61.0,56.5,29.40,North,0,0.0,0.0,85,0.00,,,0.00,WUHU21623XXSP,2013-04-06 10:03:00,
2013-04-06 06:08:00,60.8,56.3,29.40,North,0,0.0,0.0,85,0.00,,,0.00,WUHU21623XXSP,2013-04-06 10:08:00,
2013-04-06 06:13:00,60.6,56.1,29.40,NW,315,0.0,0.0,85,0.00,,,0.00,WUHU21623XXSP,2013-04-06 10:13:00,
2013-04-06 06:18:00,60.4,55.9,29.40,NNE,22,0.0,0.0,85,0.00,,,0.00,WUHU21623XXSP,2013-04-06 10:18:00,
2013-04-06 06:23:00,60.4,55.9,29.40,NW,315,0.0,0.0,85,0.00,,,0.00,WUHU21623XXSP,2013-04-06 10:23:00,
2013-04-06 06:28:00,60.1,55.6,29.40,North,0,0.0,0.0,85,0.00,,,0.00,WUHU21623XXSP,2013-04-06 10:28:00,
2013-04-06 06:33:00,60.1,55.6,29.40,NNW,337,0.0,0.0,85,0.00,,,0.00,WUHU21623XXSP,2013-04-06 10:33:00,
2013-04-06 06:38:00,60.1,55.9,29.40,NNW,337,0.0,0.0,86,0.00,,,0.00,WUHU21623XXSP,2013-04-06 10:38:00,
2013-04-06 06:43:00,60.1,55.9,29.40,NNW,337,0.0,0.0,86,0.00,,,0.00,WUHU21623XXSP,2013-04-06 10:43:00,
2013-04-06 06:48:00,59.9,55.7,29.40,NNW,337,0.0,0.0,86,0.00,,,0.00,WUHU21623XXSP,2013-04-06 10:48:00,
2013-04-06 06:53:00,59.5,55.0,29.40,NNE,22,0.0,0.0,85,0.00,,,0.00,WUHU21623XXSP,2013-04-06 10:53:00,
2013-04-06 06:58:00,59.5,55.0,29.41,North,0,0.0,0.0,85,0.00,,,0.00,WUHU21623XXSP,2013-04-06 10:58:00,
2013-04-06 07:03:00,59.5,55.0,29.41,North,0,0.0,0.0,85,0.00,,,0.00,WUHU21623XXSP,2013-04-06 11:03:00,
2013-04-06 07:08:00,59.5,55.0,29.41,NNW,337,0.0,0.0,85,0.00,,,0.00,WUHU21623XXSP,2013-04-06 11:08:00,
2013-04-06 07:13:00,59.4,54.9,29.42,NNW,337,0.0,0.0,85,0.00,,,0.00,WUHU21623XXSP,2013-04-06 11:13:00,
2013-04-06 07:18:00,59.2,54.7,29.43,NNW,337,0.0,0.0,85,0.00,,,0.00,WUHU21623XXSP,2013-04-06 11:18:00,
2013-04-06 07:23:00,59.4,54.9,29.43,North,0,0.0,0.0,85,0.00,,,0.00,WUHU21623XXSP,2013-04-06 11:23:00,
2013-04-06 07:28:00,59.2,54.7,29.44,NNW,337,0.0,0.0,85,0.00,,,0.00,WUHU21623XXSP,2013-04-06 11:28:00,
2013-04-06 07:33:00,59.4,54.9,29.44,NNW,337,0.0,0.0,85,0.00,,,0.00,WUHU21623XXSP,2013-04-06 11:33:00,
2013-04-06 07:38:00,59.4,54.9,29.44,West,270,0.0,0.0,85,0.00,,,0.00,WUHU21623XXSP,2013-04-06 11:38:00,
2013-04-06 07:43:00,59.5,55.0,29.44,North,0,0.0,0.0,85,0.00,,,0.00,WUHU21623XXSP,2013-04-06 11:43:00,
2013-04-06 07:48:00,59.5,55.0,29.44,NNW,337,0.0,0.0,85,0.00,,,0.00,WUHU21623XXSP,2013-04-06 11:48:00,
2013-04-06 07:53:00,59.5,55.0,29.45,WNW,292,0.0,0.0,85,0.00,,,0.00,WUHU21623XXSP,2013-04-06 11:53:00,
2013-04-06 07:58:00,59.5,55.0,29.45,NW,315,0.0,0.0,85,0.00,,,0.00,WUHU21623XXSP,2013-04-06 11:58:00,
2013-04-06 08:03:00,59.5,55.0,29.45,NNW,337,0.0,0.0,85,0.00,,,0.00,WUHU21623XXSP,2013-04-06 12:03:00,
2013-04-06 08:08:00,59.9,55.4,29.45,NNW,337,0.0,0.0,85,0.00,,,0.00,WUHU21623XXSP,2013-04-06 12:08:00,
2013-04-06 08:13:00,60.1,55.3,29.46,NNW,337,0.0,0.0,84,0.00,,,0.00,WUHU21623XXSP,2013-04-06 12:13:00,
2013-04-06 08:18:00,60.6,55.8,29.46,NW,315,0.0,0.0,84,0.00,,,0.00,WUHU21623XXSP,2013-04-06 12:18:00,
2013-04-06 08:23:00,60.6,55.5,29.46,NNW,337,0.0,0.0,83,0.00,,,0.00,WUHU21623XXSP,2013-04-06 12:23:00,
2013-04-06 08:28:00,61.2,56.0,29.46,North,0,0.0,0.0,83,0.00,,,0.00,WUHU21623XXSP,2013-04-06 12:28:00,
2013-04-06 08:33:00,61.3,55.8,29.46,NNW,337,0.0,0.0,82,0.00,,,0.00,WUHU21623XXSP,2013-04-06 12:33:00,
2013-04-06 08:38:00,61.3,55.5,29.46,NW,315,0.0,0.0,81,0.00,,,0.00,WUHU21623XXSP,2013-04-06 12:38:00,
2013-04-06 08:43:00,62.1,56.1,29.46,NNW,337,0.0,0.0,81,0.00,,,0.00,WUHU21623XXSP,2013-04-06 12:43:00,
2013-04-06 08:48:00,62.4,56.5,29.45,NNW,337,0.0,0.0,81,0.00,,,0.00,WUHU21623XXSP,2013-04-06 12:48:00,
2013-04-06 08:53:00,62.6,56.3,29.46,North,0,0.0,0.0,80,0.00,,,0.00,WUHU21623XXSP,2013-04-06 12:53:00,
2013-04-06 08:58:00,62.6,56.3,29.46,NNW,337,0.0,0.0,80,0.00,,,0.00,WUHU21623XXSP,2013-04-06 12:58:00,
2013-04-06 09:03:00,63.0,56.7,29.46,NNW,337,0.0,0.0,80,0.00,,,0.00,WUHU21623XXSP,2013-04-06 13:03:00,
2013-04-06 09:08:00,63.7,56.7,29.45,North,0,0.0,0.0,78,0.00,,,0.00,WUHU21623XXSP,2013-04-06 13:08:00,
2013-04-06 09:13:00,64.2,57.2,29.46,North,0,0.0,0.0,78,0.00,,,0.00,WUHU21623XXSP,2013-04-06 13:13:00,
2013-04-06 09:18:00,64.2,56.8,29.46,NNE,22,0.0,0.0,77,0.00,,,0.00,WUHU21623XXSP,2013-04-06 13:18:00,
2013-04-06 09:23:00,65.3,57.5,29.45,NNE,22,0.0,0.0,76,0.00,,,0.00,WUHU21623XXSP,2013-04-06 13:23:00,
2013-04-06 09:28:00,65.8,58.0,29.46,North,0,0.0,0.0,76,0.00,,,0.00,WUHU21623XXSP,2013-04-06 13:28:00,
2013-04-06 09:33:00,66.0,57.8,29.46,NNW,337,0.0,0.0,75,0.00,,,0.00,WUHU21623XXSP,2013-04-06 13:33:00,
2013-04-06 09:38:00,65.8,57.3,29.46,NNE,22,0.0,0.0,74,0.00,,,0.00,WUHU21623XXSP,2013-04-06 13:38:00,
2013-04-06 09:43:00,66.6,58.0,29.47,NW,315,0.0,0.0,74,0.00,,,0.00,WUHU21623XXSP,2013-04-06 13:43:00,
2013-04-06 09:48:00,66.4,57.8,29.46,NNE,22,0.0,0.0,74,0.00,,,0.00,WUHU21623XXSP,2013-04-06 13:48:00,
2013-04-06 09:53:00,67.1,58.2,29.47,NNW,337,0.0,0.0,73,0.00,,,0.00,WUHU21623XXSP,2013-04-06 13:53:00,
2013-04-06 09:58:00,67.3,58.7,29.47,North,0,0.0,0.0,74,0.00,,,0.00,WUHU21623XXSP,2013-04-06 13:58:00,
2013-04-06 10:04:00,68.2,58.8,29.47,NW,315,0.0,0.0,72,0.00,,,0.00,WUHU21623XXSP,2013-04-06 14:04:00,
2013-04-06 10:09:00,68.2,58.5,29.47,NNW,337,0.0,0.0,71,0.00,,,0.00,WUHU21623XXSP,2013-04-06 14:09:00,
2013-04-06 10:14:00,68.4,58.6,29.47,NW,315,0.0,0.0,71,0.00,,,0.00,WUHU21623XXSP,2013-04-06 14:14:00,
2013-04-06 10:19:00,68.9,59.1,29.47,NNE,22,0.0,0.0,71,0.00,,,0.00,WUHU21623XXSP,2013-04-06 14:19:00,
2013-04-06 10:24:00,69.6,59.8,29.47,NNE,22,0.0,0.0,71,0.00,,,0.00,WUHU21623XXSP,2013-04-06 14:24:00,
2013-04-06 10:29:00,70.3,59.6,29.48,North,0,0.0,0.0,69,0.00,,,0.00,WUHU21623XXSP,2013-04-06 14:29:00,
2013-04-06 10:34:00,70.3,59.6,29.47,NNW,337,0.0,0.0,69,0.00,,,0.00,WUHU21623XXSP,2013-04-06 14:34:00,
2013-04-06 10:39:00,71.2,60.5,29.48,WNW,292,0.0,0.0,69,0.00,,,0.00,WUHU21623XXSP,2013-04-06 14:39:00,
2013-04-06 10:44:00,71.4,60.3,29.48,NNW,337,0.0,0.0,68,0.00,,,0.00,WUHU21623XXSP,2013-04-06 14:44:00,
2013-04-06 10:49:00,72.0,60.4,29.47,North,0,0.0,0.0,67,0.00,,,0.00,WUHU21623XXSP,2013-04-06 14:49:00,
2013-04-06 10:54:00,72.3,60.3,29.47,NW,315,0.0,0.0,66,0.00,,,0.00,WUHU21623XXSP,2013-04-06 14:54:00,
2013-04-06 10:59:00,72.1,60.1,29.47,NNE,22,0.0,0.0,66,0.00,,,0.00,WUHU21623XXSP,2013-04-06 14:59:00,
2013-04-06 11:04:00,73.0,60.5,29.47,NE,45,0.0,0.0,65,0.00,,,0.00,WUHU21623XXSP,2013-04-06 15:04:00,
2013-04-06 11:09:00,73.2,60.7,29.48,NE,45,0.0,0.0,65,0.00,,,0.00,WUHU21623XXSP,2013-04-06 15:09:00,
2013-04-06 11:14:00,74.1,61.6,29.48,NE,45,0.0,0.0,65,0.00,,,0.00,WUHU21623XXSP,2013-04-06 15:14:00,
2013-04-06 11:19:00,74.5,60.6,29.48,NNE,22,0.0,0.0,62,0.00,,,0.00,WUHU21623XXSP,2013-04-06 15:19:00,
2013-04-06 11:24:00,74.3,60.4,29.48,NE,45,0.0,0.0,62,0.00,,,0.00,WUHU21623XXSP,2013-04-06 15:24:00,
2013-04-06 11:29:00,74.7,61.2,29.47,NNE,22,0.0,0.0,63,0.00,,,0.00,WUHU21623XXSP,2013-04-06 15:29:00,
2013-04-06 11:34:00,75.0,61.1,29.48,NE,45,0.0,0.0,62,0.00,,,0.00,WUHU21623XXSP,2013-04-06 15:34:00,
2013-04-06 11:39:00,75.4,61.5,29.47,NNE,22,0.0,0.0,62,0.00,,,0.00,WUHU21623XXSP,2013-04-06 15:39:00,
2013-04-06 11:45:00,76.1,61.7,29.48,North,0,0.0,0.0,61,0.00,,,0.00,WUHU21623XXSP,2013-04-06 15:45:00,
2013-04-06 11:50:00,76.3,61.8,29.48,NE,45,0.0,0.0,61,0.00,,,0.00,WUHU21623XXSP,2013-04-06 15:50:00,
2013-04-06 11:55:00,76.1,61.7,29.48,NNE,22,0.0,0.0,61,0.00,,,0.00,WUHU21623XXSP,2013-04-06 15:55:00,
2013-04-06 12:00:00,77.0,62.1,29.48,NW,315,0.0,0.0,60,0.00,,,0.00,WUHU21623XXSP,2013-04-06 16:00:00,
2013-04-06 12:05:00,77.0,62.1,29.48,NW,315,0.0,0.0,60,0.00,,,0.00,WUHU21623XXSP,2013-04-06 16:05:00,
2013-04-06 12:10:00,77.7,62.3,29.48,NE,45,0.0,0.0,59,0.00,,,0.00,WUHU21623XXSP,2013-04-06 16:10:00,
2013-04-06 12:15:00,77.7,61.8,29.48,ENE,67,0.0,0.0,58,0.00,,,0.00,WUHU21623XXSP,2013-04-06 16:15:00,
2013-04-06 12:20:00,78.1,62.1,29.48,NE,45,0.0,0.0,58,0.00,,,0.00,WUHU21623XXSP,2013-04-06 16:20:00,
2013-04-06 12:25:00,77.9,61.9,29.48,ENE,67,0.0,0.0,58,0.00,,,0.00,WUHU21623XXSP,2013-04-06 16:25:00,
2013-04-06 12:30:00,77.2,62.2,29.47,North,0,0.0,0.0,60,0.00,,,0.00,WUHU21623XXSP,2013-04-06 16:30:00,
2013-04-06 12:35:00,75.9,61.5,29.48,North,0,0.0,0.0,61,0.00,,,0.00,WUHU21623XXSP,2013-04-06 16:35:00,
2013-04-06 12:40:00,78.1,62.6,29.47,NNE,22,0.0,0.0,59,0.00,,,0.00,WUHU21623XXSP,2013-04-06 16:40:00,
2013-04-06 12:45:00,78.4,62.5,29.47,North,0,0.0,0.0,58,0.00,,,0.00,WUHU21623XXSP,2013-04-06 16:45:00,
2013-04-06 12:50:00,76.8,61.9,29.47,NE,45,0.0,0.0,60,0.00,,,0.00,WUHU21623XXSP,2013-04-06 16:50:00,
2013-04-06 12:55:00,76.8,61.9,29.47,NNE,22,0.0,0.0,60,0.00,,,0.00,WUHU21623XXSP,2013-04-06 16:55:00,
2013-04-06 13:00:00,75.7,61.4,29.48,North,0,0.0,0.0,61,0.00,,,0.00,WUHU21623XXSP,2013-04-06 17:00:00,
2013-04-06 13:05:00,75.4,61.5,29.47,NE,45,0.0,0.0,62,0.00,,,0.00,WUHU21623XXSP,2013-04-06 17:05:00,
2013-04-06 13:10:00,77.9,63.0,29.47,NE,45,0.0,0.0,60,0.00,,,0.00,WUHU21623XXSP,2013-04-06 17:10:00,
2013-04-06 13:15:00,76.8,62.3,29.47,NE,45,0.0,0.0,61,0.00,,,0.00,WUHU21623XXSP,2013-04-06 17:15:00,
2013-04-06 13:20:00,76.8,62.3,29.47,NE,45,0.0,0.0,61,0.00,,,0.00,WUHU21623XXSP,2013-04-06 17:20:00,
2013-04-06 13:25:00,78.1,62.1,29.47,North,0,0.0,0.0,58,0.00,,,0.00,WUHU21623XXSP,2013-04-06 17:25:00,
2013-04-06 13:30:00,79.5,62.9,29.47,NE,45,0.0,0.0,57,0.00,,,0.00,WUHU21623XXSP,2013-04-06 17:30:00,
2013-04-06 13:35:00,79.9,63.3,29.47,NE,45,0.0,0.0,57,0.00,,,0.00,WUHU21623XXSP,2013-04-06 17:35:00,
2013-04-06 13:40:00,78.6,63.2,29.47,NNE,22,0.0,0.0,59,0.00,,,0.00,WUHU21623XXSP,2013-04-06 17:40:00,
2013-04-06 13:45:00,79.3,63.8,29.47,ENE,67,0.0,0.0,59,0.00,,,0.00,WUHU21623XXSP,2013-04-06 17:45:00,
2013-04-06 13:50:00,79.5,63.5,29.47,North,0,0.0,0.0,58,0.00,,,0.00,WUHU21623XXSP,2013-04-06 17:50:00,
2013-04-06 13:55:00,79.3,63.3,29.47,NE,45,0.0,0.0,58,0.00,,,0.00,WUHU21623XXSP,2013-04-06 17:55:00,
2013-04-06 14:00:00,79.5,63.5,29.47,NNE,22,0.0,0.0,58,0.00,,,0.00,WUHU21623XXSP,2013-04-06 18:00:00,
2013-04-06 14:05:00,78.1,63.1,29.46,East,90,0.0,0.0,60,0.00,,,0.00,WUHU21623XXSP,2013-04-06 18:05:00,
2013-04-06 14:10:00,80.8,64.1,29.46,ENE,67,0.0,0.0,57,0.00,,,0.00,WUHU21623XXSP,2013-04-06 18:10:00,
2013-04-06 14:15:00,80.8,63.6,29.46,NNE,22,0.0,0.0,56,0.00,,,0.00,WUHU21623XXSP,2013-04-06 18:15:00,
2013-04-06 14:20:00,79.0,63.5,29.46,NE,45,0.0,0.0,59,0.00,,,0.00,WUHU21623XXSP,2013-04-06 18:20:00,
2013-04-06 14:25:00,79.3,63.3,29.46,NNW,337,0.0,0.0,58,0.00,,,0.00,WUHU21623XXSP,2013-04-06 18:25:00,
2013-04-06 14:30:00,80.4,63.8,29.46,NNE,22,0.0,0.0,57,0.00,,,0.00,WUHU21623XXSP,2013-04-06 18:30:00,
2013-04-06 14:35:00,80.4,64.3,29.46,NE,45,0.0,0.0,58,0.00,,,0.00,WUHU21623XXSP,2013-04-06 18:35:00,
2013-04-06 14:40:00,78.1,63.1,29.46,North,0,0.0,0.0,60,0.00,,,0.00,WUHU21623XXSP,2013-04-06 18:40:00,
2013-04-06 14:45:00,77.5,62.6,29.46,NNE,22,0.0,0.0,60,0.00,,,0.00,WUHU21623XXSP,2013-04-06 18:45:00,
2013-04-06 14:51:00,79.3,64.3,29.46,NE,45,0.0,0.0,60,0.00,,,0.00,WUHU21623XXSP,2013-04-06 18:51:00,
2013-04-06 14:56:00,80.6,63.4,29.46,NE,45,0.0,0.0,56,0.00,,,0.00,WUHU21623XXSP,2013-04-06 18:56:00,
2013-04-06 15:01:00,79.9,63.3,29.45,NE,45,0.0,0.0,57,0.00,,,0.00,WUHU21623XXSP,2013-04-06 19:01:00,
2013-04-06 15:06:00,80.4,64.3,29.45,ESE,112,0.0,0.0,58,0.00,,,0.00,WUHU21623XXSP,2013-04-06 19:06:00,
2013-04-06 15:11:00,80.6,64.4,29.45,ESE,112,0.0,0.0,58,0.00,,,0.00,WUHU21623XXSP,2013-04-06 19:11:00,
2013-04-06 15:16:00,79.5,63.5,29.45,ESE,112,0.0,0.0,58,0.00,,,0.00,WUHU21623XXSP,2013-04-06 19:16:00,
2013-04-06 15:21:00,79.5,62.9,29.45,NE,45,0.0,0.0,57,0.00,,,0.00,WUHU21623XXSP,2013-04-06 19:21:00,
2013-04-06 15:26:00,78.4,62.5,29.45,NE,45,0.0,0.0,58,0.00,,,0.00,WUHU21623XXSP,2013-04-06 19:26:00,
2013-04-06 15:31:00,77.5,62.1,29.46,NE,45,0.0,0.0,59,0.00,,,0.00,WUHU21623XXSP,2013-04-06 19:31:00,
2013-04-06 15:36:00,76.6,61.7,29.46,NE,45,0.0,0.0,60,0.00,,,0.00,WUHU21623XXSP,2013-04-06 19:36:00,
2013-04-06 15:41:00,76.3,61.8,29.46,NE,45,0.0,0.0,61,0.00,,,0.00,WUHU21623XXSP,2013-04-06 19:41:00,
2013-04-06 15:46:00,76.1,61.7,29.46,ESE,112,0.0,0.0,61,0.02,,,0.02,WUHU21623XXSP,2013-04-06 19:46:00,
2013-04-06 15:51:00,76.3,61.8,29.46,NE,45,0.0,0.0,61,0.02,,,0.02,WUHU21623XXSP,2013-04-06 19:51:00,
2013-04-06 15:56:00,76.1,62.1,29.46,NE,45,0.0,0.0,62,0.02,,,0.02,WUHU21623XXSP,2013-04-06 19:56:00,
2013-04-06 16:01:00,76.5,62.0,29.46,East,90,0.0,0.0,61,0.02,,,0.02,WUHU21623XXSP,2013-04-06 20:01:00,
2013-04-06 16:06:00,76.5,62.0,29.46,East,90,0.0,0.0,61,0.02,,,0.02,WUHU21623XXSP,2013-04-06 20:06:00,
2013-04-06 16:11:00,76.1,61.7,29.45,East,90,0.0,0.0,61,0.02,,,0.02,WUHU21623XXSP,2013-04-06 20:11:00,
2013-04-06 16:16:00,75.7,61.8,29.45,East,90,0.0,0.0,62,0.02,,,0.02,WUHU21623XXSP,2013-04-06 20:16:00,
2013-04-06 16:21:00,75.0,61.1,29.45,ENE,67,0.0,0.0,62,0.02,,,0.02,WUHU21623XXSP,2013-04-06 20:21:00,
2013-04-06 16:26:00,75.0,61.1,29.45,ENE,67,0.0,0.0,62,0.02,,,0.02,WUHU21623XXSP,2013-04-06 20:26:00,
2013-04-06 16:31:00,75.6,61.2,29.45,NNE,22,0.0,0.0,61,0.02,,,0.02,WUHU21623XXSP,2013-04-06 20:31:00,
2013-04-06 16:36:00,77.2,62.2,29.45,ESE,112,0.0,0.0,60,0.02,,,0.02,WUHU21623XXSP,2013-04-06 20:36:00,
2013-04-06 16:41:00,76.8,61.9,29.45,NE,45,0.0,0.0,60,0.00,,,0.02,WUHU21623XXSP,2013-04-06 20:41:00,
2013-04-06 16:46:00,76.8,61.9,29.45,NE,45,0.0,0.0,60,0.00,,,0.02,WUHU21623XXSP,2013-04-06 20:46:00,
2013-04-06 16:51:00,75.7,60.9,29.45,NE,45,0.0,0.0,60,0.00,,,0.02,WUHU21623XXSP,2013-04-06 20:51:00,
2013-04-06 16:56:00,75.6,60.8,29.45,NE,45,0.0,0.0,60,0.00,,,0.02,WUHU21623XXSP,2013-04-06 20:56:00,
2013-04-06 17:01:00,75.7,60.9,29.45,NE,45,0.0,0.0,60,0.00,,,0.02,WUHU21623XXSP,2013-04-06 21:01:00,
2013-04-06 17:06:00,75.4,60.6,29.46,NNE,22,0.0,0.0,60,0.00,,,0.02,WUHU21623XXSP,2013-04-06 21:06:00,
2013-04-06 17:11:00,75.4,60.6,29.46,NNE,22,0.0,0.0,60,0.00,,,0.02,WUHU21623XXSP,2013-04-06 21:11:00,
2013-04-06 17:16:00,77.2,61.2,29.46,NE,45,0.0,0.0,58,0.00,,,0.02,WUHU21623XXSP,2013-04-06 21:16:00,
2013-04-06 17:21:00,78.1,61.1,29.46,NNE,22,0.0,0.0,56,0.00,,,0.02,WUHU21623XXSP,2013-04-06 21:21:00,
2013-04-06 17:26:00,78.6,61.6,29.46,NNE,22,0.0,0.0,56,0.00,,,0.02,WUHU21623XXSP,2013-04-06 21:26:00,
2013-04-06 17:31:00,78.4,60.9,29.46,NE,45,0.0,0.0,55,0.00,,,0.02,WUHU21623XXSP,2013-04-06 21:31:00,
2013-04-06 17:37:00,78.3,61.3,29.46,NNE,22,0.0,0.0,56,0.00,,,0.02,WUHU21623XXSP,2013-04-06 21:37:00,
2013-04-06 17:41:00,76.3,59.9,29.47,NE,45,0.0,0.0,57,0.00,,,0.02,WUHU21623XXSP,2013-04-06 21:41:00,
2013-04-06 17:46:00,76.8,60.4,29.47,NE,45,0.0,0.0,57,0.00,,,0.02,WUHU21623XXSP,2013-04-06 21:46:00,
2013-04-06 17:51:00,77.5,60.5,29.47,NE,45,0.0,0.0,56,0.00,,,0.02,WUHU21623XXSP,2013-04-06 21:51:00,
2013-04-06 17:57:00,77.5,60.5,29.48,North,0,0.0,0.0,56,0.00,,,0.02,WUHU21623XXSP,2013-04-06 21:57:00,
2013-04-06 18:03:00,77.2,60.2,29.48,NE,45,0.0,0.0,56,0.00,,,0.02,WUHU21623XXSP,2013-04-06 22:03:00,
2013-04-06 18:08:00,76.6,60.7,29.48,NNE,22,0.0,0.0,58,0.00,,,0.02,WUHU21623XXSP,2013-04-06 22:08:00,
2013-04-06 18:13:00,76.3,59.9,29.47,NNE,22,0.0,0.0,57,0.00,,,0.02,WUHU21623XXSP,2013-04-06 22:13:00,
2013-04-06 18:18:00,76.5,60.1,29.47,NE,45,0.0,0.0,57,0.00,,,0.02,WUHU21623XXSP,2013-04-06 22:18:00,
2013-04-06 18:23:00,76.1,60.2,29.47,NE,45,0.0,0.0,58,0.00,,,0.02,WUHU21623XXSP,2013-04-06 22:23:00,
2013-04-06 18:28:00,75.9,60.1,29.47,NE,45,0.0,0.0,58,0.00,,,0.02,WUHU21623XXSP,2013-04-06 22:28:00,
2013-04-06 18:33:00,75.7,59.4,29.48,NNE,22,0.0,0.0,57,0.00,,,0.02,WUHU21623XXSP,2013-04-06 22:33:00,
2013-04-06 18:38:00,75.0,59.3,29.48,NE,45,0.0,0.0,58,0.00,,,0.02,WUHU21623XXSP,2013-04-06 22:38:00,
2013-04-06 18:43:00,75.0,59.3,29.48,ENE,67,0.0,0.0,58,0.00,,,0.02,WUHU21623XXSP,2013-04-06 22:43:00,
2013-04-06 18:48:00,74.5,58.7,29.48,NE,45,0.0,0.0,58,0.00,,,0.02,WUHU21623XXSP,2013-04-06 22:48:00,
2013-04-06 18:53:00,74.5,59.2,29.48,ENE,67,0.0,0.0,59,0.00,,,0.02,WUHU21623XXSP,2013-04-06 22:53:00,
2013-04-06 18:58:00,74.3,59.0,29.48,NNE,22,0.0,0.0,59,0.00,,,0.02,WUHU21623XXSP,2013-04-06 22:58:00,
2013-04-06 19:03:00,74.1,58.9,29.48,NE,45,0.0,0.0,59,0.00,,,0.02,WUHU21623XXSP,2013-04-06 23:03:00,
2013-04-06 19:08:00,73.8,59.0,29.48,NNE,22,0.0,0.0,60,0.00,,,0.02,WUHU21623XXSP,2013-04-06 23:08:00,
2013-04-06 19:13:00,73.8,59.0,29.48,NE,45,0.0,0.0,60,0.00,,,0.02,WUHU21623XXSP,2013-04-06 23:13:00,
2013-04-06 19:18:00,73.6,58.8,29.48,NE,45,0.0,0.0,60,0.00,,,0.02,WUHU21623XXSP,2013-04-06 23:18:00,
2013-04-06 19:23:00,73.2,58.5,29.48,NE,45,0.0,0.0,60,0.00,,,0.02,WUHU21623XXSP,2013-04-06 23:23:00,
2013-04-06 19:28:00,73.0,58.7,29.49,NNE,22,0.0,0.0,61,0.00,,,0.02,WUHU21623XXSP,2013-04-06 23:28:00,
2013-04-06 19:33:00,72.9,58.6,29.49,NE,45,0.0,0.0,61,0.00,,,0.02,WUHU21623XXSP,2013-04-06 23:33:00,
2013-04-06 19:38:00,72.7,58.9,29.49,NE,45,0.0,0.0,62,0.00,,,0.02,WUHU21623XXSP,2013-04-06 23:38:00,
2013-04-06 19:43:00,72.5,58.7,29.49,NE,45,0.0,0.0,62,0.00,,,0.02,WUHU21623XXSP,2013-04-06 23:43:00,
2013-04-06 19:48:00,72.3,58.5,29.49,NNE,22,0.0,0.0,62,0.00,,,0.02,WUHU21623XXSP,2013-04-06 23:48:00,
2013-04-06 19:53:00,72.1,58.4,29.49,NE,45,0.0,0.0,62,0.00,,,0.02,WUHU21623XXSP,2013-04-06 23:53:00,
2013-04-06 19:58:00,72.1,58.4,29.49,North,0,0.0,0.0,62,0.00,,,0.02,WUHU21623XXSP,2013-04-06 23:58:00,
2013-04-06 20:03:00,72.0,58.2,29.49,NE,45,0.0,0.0,62,0.00,,,0.02,WUHU21623XXSP,2013-04-07 00:03:00,
2013-04-06 20:08:00,72.0,58.2,29.49,NE,45,0.0,0.0,62,0.00,,,0.02,WUHU21623XXSP,2013-04-07 00:08:00,
2013-04-06 20:13:00,71.8,58.5,29.49,NNE,22,0.0,0.0,63,0.00,,,0.02,WUHU21623XXSP,2013-04-07 00:13:00,
2013-04-06 20:18:00,71.8,58.5,29.49,NE,45,0.0,0.0,63,0.00,,,0.02,WUHU21623XXSP,2013-04-07 00:18:00,
2013-04-06 20:23:00,71.6,58.7,29.49,NNE,22,0.0,0.0,64,0.00,,,0.02,WUHU21623XXSP,2013-04-07 00:23:00,
2013-04-06 20:28:00,71.4,58.6,29.49,North,0,0.0,0.0,64,0.00,,,0.02,WUHU21623XXSP,2013-04-07 00:28:00,
2013-04-06 20:33:00,71.4,58.6,29.50,NE,45,0.0,0.0,64,0.00,,,0.02,WUHU21623XXSP,2013-04-07 00:33:00,
2013-04-06 20:39:00,71.4,58.6,29.50,NE,45,0.0,0.0,64,0.00,,,0.02,WUHU21623XXSP,2013-04-07 00:39:00,
2013-04-06 20:44:00,71.4,58.6,29.50,NE,45,0.0,0.0,64,0.00,,,0.02,WUHU21623XXSP,2013-04-07 00:44:00,
2013-04-06 20:49:00,71.2,58.4,29.50,NNE,22,0.0,0.0,64,0.00,,,0.02,WUHU21623XXSP,2013-04-07 00:49:00,
2013-04-06 20:54:00,71.2,58.4,29.50,NE,45,0.0,0.0,64,0.00,,,0.02,WUHU21623XXSP,2013-04-07 00:54:00,
2013-04-06 20:59:00,71.2,58.4,29.50,NE,45,0.0,0.0,64,0.00,,,0.02,WUHU21623XXSP,2013-04-07 00:59:00,
2013-04-06 21:04:00,70.9,58.1,29.50,NE,45,0.0,0.0,64,0.00,,,0.02,WUHU21623XXSP,2013-04-07 01:04:00,
2013-04-06 21:09:00,70.9,58.1,29.50,NE,45,0.0,0.0,64,0.00,,,0.02,WUHU21623XXSP,2013-04-07 01:09:00,
2013-04-06 21:14:00,70.9,58.5,29.50,NNE,22,0.0,0.0,65,0.00,,,0.02,WUHU21623XXSP,2013-04-07 01:14:00,
2013-04-06 21:19:00,70.9,58.5,29.50,NE,45,0.0,0.0,65,0.00,,,0.02,WUHU21623XXSP,2013-04-07 01:19:00,
2013-04-06 21:24:00,70.9,58.5,29.51,NNE,22,0.0,0.0,65,0.00,,,0.02,WUHU21623XXSP,2013-04-07 01:24:00,
2013-04-06 21:29:00,70.9,58.9,29.51,NE,45,0.0,0.0,66,0.00,,,0.02,WUHU21623XXSP,2013-04-07 01:29:00,
2013-04-06 21:35:00,70.9,59.3,29.51,NE,45,0.0,0.0,67,0.00,,,0.02,WUHU21623XXSP,2013-04-07 01:35:00,
2013-04-06 21:40:00,71.1,59.5,29.51,NE,45,0.0,0.0,67,0.00,,,0.02,WUHU21623XXSP,2013-04-07 01:40:00,
2013-04-06 21:45:00,71.2,59.7,29.51,NNE,22,0.0,0.0,67,0.00,,,0.02,WUHU21623XXSP,2013-04-07 01:45:00,
2013-04-06 21:50:00,71.2,59.7,29.51,NE,45,0.0,0.0,67,0.00,,,0.02,WUHU21623XXSP,2013-04-07 01:50:00,
2013-04-06 21:55:00,71.2,60.1,29.51,NE,45,0.0,0.0,68,0.00,,,0.02,WUHU21623XXSP,2013-04-07 01:55:00,
2013-04-06 22:00:00,71.2,60.1,29.51,NE,45,0.0,0.0,68,0.00,,,0.02,WUHU21623XXSP,2013-04-07 02:00:00,
2013-04-06 22:05:00,71.2,60.1,29.51,NE,45,0.0,0.0,68,0.00,,,0.02,WUHU21623XXSP,2013-04-07 02:05:00,
2013-04-06 22:10:00,71.2,60.5,29.51,NNE,22,0.0,0.0,69,0.00,,,0.02,WUHU21623XXSP,2013-04-07 02:10:00,
2013-04-06 22:15:00,71.2,60.5,29.51,NNE,22,0.0,0.0,69,0.00,,,0.02,WUHU21623XXSP,2013-04-07 02:15:00,
2013-04-06 22:20:00,71.2,60.5,29.51,NE,45,0.0,0.0,69,0.00,,,0.02,WUHU21623XXSP,2013-04-07 02:20:00,
2013-04-06 22:25:00,71.2,60.5,29.52,East,90,0.0,0.0,69,0.00,,,0.02,WUHU21623XXSP,2013-04-07 02:25:00,
2013-04-06 22:30:00,71.2,60.1,29.51,NE,45,0.0,0.0,68,0.00,,,0.02,WUHU21623XXSP,2013-04-07 02:30:00,
2013-04-06 22:35:00,71.2,60.5,29.52,NNE,22,0.0,0.0,69,0.00,,,0.02,WUHU21623XXSP,2013-04-07 02:35:00,
2013-04-06 22:40:00,71.2,60.5,29.52,NE,45,0.0,0.0,69,0.00,,,0.02,WUHU21623XXSP,2013-04-07 02:40:00,
2013-04-06 22:45:00,71.2,60.1,29.52,NE,45,0.0,0.0,68,0.00,,,0.02,WUHU21623XXSP,2013-04-07 02:45:00,
2013-04-06 22:50:00,71.2,60.1,29.52,ENE,67,0.0,0.0,68,0.00,,,0.02,WUHU21623XXSP,2013-04-07 02:50:00,
2013-04-06 22:55:00,71.1,59.9,29.52,NNE,22,0.0,0.0,68,0.00,,,0.02,WUHU21623XXSP,2013-04-07 02:55:00,
2013-04-06 23:00:00,70.9,59.8,29.52,NE,45,0.0,0.0,68,0.00,,,0.02,WUHU21623XXSP,2013-04-07 03:00:00,
2013-04-06 23:05:00,70.9,59.8,29.52,NE,45,0.0,0.0,68,0.00,,,0.02,WUHU21623XXSP,2013-04-07 03:05:00,
2013-04-06 23:10:00,70.9,59.3,29.53,NE,45,0.0,0.0,67,0.00,,,0.02,WUHU21623XXSP,2013-04-07 03:10:00,
2013-04-06 23:15:00,70.9,59.3,29.53,NE,45,0.0,0.0,67,0.00,,,0.02,WUHU21623XXSP,2013-04-07 03:15:00,
2013-04-06 23:20:00,70.9,59.8,29.53,NNE,22,0.0,0.0,68,0.00,,,0.02,WUHU21623XXSP,2013-04-07 03:20:00,
2013-04-06 23:25:00,70.9,60.2,29.53,ENE,67,0.0,0.0,69,0.00,,,0.02,WUHU21623XXSP,2013-04-07 03:25:00,
2013-04-06 23:30:00,70.9,60.2,29.53,ENE,67,0.0,0.0,69,0.00,,,0.02,WUHU21623XXSP,2013-04-07 03:30:00,
2013-04-06 23:35:00,70.7,60.8,29.52,NE,45,0.0,0.0,71,0.00,,,0.02,WUHU21623XXSP,2013-04-07 03:35:00,
2013-04-06 23:40:00,70.9,61.0,29.53,ESE,112,0.0,0.0,71,0.00,,,0.02,WUHU21623XXSP,2013-04-07 03:40:00,
2013-04-06 23:45:00,70.9,60.6,29.53,ESE,112,0.0,0.0,70,0.00,,,0.02,WUHU21623XXSP,2013-04-07 03:45:00,
2013-04-06 23:50:00,71.1,60.4,29.53,NE,45,0.0,0.0,69,0.00,,,0.02,WUHU21623XXSP,2013-04-07 03:50:00,
2013-04-06 23:55:00,71.1,60.4,29.53,NE,45,0.0,0.0,69,0.00,,,0.02,WUHU21623XXSP,2013-04-07 03:55:00,